sensor_id;sensor_type;location;lat;lon;timestamp;pressure;altitude;pressure_sealevel;temperature;humidity
11314;BME280;5712;48.858;9.206;2023-05-15T00:00:22;97755.94;;;10.66;100.00
11314;BME280;5712;48.858;9.206;2023-05-15T00:02:48;97747.03;;;10.67;100.00
11314;BME280;5712;48.858;9.206;2023-05-15T00:05:15;97750.66;;;10.66;100.00
11314;BME280;5712;48.858;9.206;2023-05-15T00:07:41;97745.13;;;10.69;100.00
11314;BME280;5712;48.858;9.206;2023-05-15T00:10:09;97745.13;;;10.69;100.00
11314;BME280;5712;48.858;9.206;2023-05-15T00:12:36;97733.00;;;10.66;100.00
11314;BME280;5712;48.858;9.206;2023-05-15T00:15:04;97736.47;;;10.67;100.00
11314;BME280;5712;48.858;9.206;2023-05-15T00:17:30;97741.28;;;10.73;100.00
11314;BME280;5712;48.858;9.206;2023-05-15T00:19:57;97745.66;;;10.85;100.00
11314;BME280;5712;48.858;9.206;2023-05-15T00:22:24;97732.94;;;10.90;100.00
11314;BME280;5712;48.858;9.206;2023-05-15T00:24:51;97727.63;;;10.90;100.00
11314;BME280;5712;48.858;9.206;2023-05-15T00:27:17;97729.31;;;10.91;100.00
11314;BME280;5712;48.858;9.206;2023-05-15T00:29:45;97726.06;;;10.87;100.00
11314;BME280;5712;48.858;9.206;2023-05-15T00:32:12;97733.16;;;10.87;100.00
11314;BME280;5712;48.858;9.206;2023-05-15T00:34:38;97735.78;;;10.87;100.00
11314;BME280;5712;48.858;9.206;2023-05-15T00:37:05;97737.25;;;10.91;100.00
11314;BME280;5712;48.858;9.206;2023-05-15T00:39:32;97734.13;;;10.97;100.00
11314;BME280;5712;48.858;9.206;2023-05-15T00:41:59;97737.38;;;11.00;100.00
11314;BME280;5712;48.858;9.206;2023-05-15T00:44:26;97740.63;;;11.04;100.00
11314;BME280;5712;48.858;9.206;2023-05-15T00:46:56;97734.88;;;11.10;100.00
11314;BME280;5712;48.858;9.206;2023-05-15T00:49:22;97723.31;;;11.11;100.00
11314;BME280;5712;48.858;9.206;2023-05-15T00:51:51;97729.34;;;11.13;100.00
11314;BME280;5712;48.858;9.206;2023-05-15T00:54:18;97722.38;;;11.12;100.00
11314;BME280;5712;48.858;9.206;2023-05-15T00:56:45;97719.00;;;11.10;100.00
11314;BME280;5712;48.858;9.206;2023-05-15T00:59:13;97723.47;;;11.09;100.00
11314;BME280;5712;48.858;9.206;2023-05-15T01:01:39;97725.97;;;11.11;100.00
11314;BME280;5712;48.858;9.206;2023-05-15T01:04:10;97722.03;;;11.16;100.00
11314;BME280;5712;48.858;9.206;2023-05-15T01:06:37;97729.84;;;11.18;100.00
11314;BME280;5712;48.858;9.206;2023-05-15T01:09:04;97734.41;;;11.16;100.00
11314;BME280;5712;48.858;9.206;2023-05-15T01:11:34;97735.72;;;11.10;100.00
11314;BME280;5712;48.858;9.206;2023-05-15T01:14:04;97739.78;;;11.14;100.00
11314;BME280;5712;48.858;9.206;2023-05-15T01:16:30;97741.47;;;11.04;100.00
11314;BME280;5712;48.858;9.206;2023-05-15T01:18:57;97736.06;;;10.95;100.00
11314;BME280;5712;48.858;9.206;2023-05-15T01:21:46;97746.63;;;10.95;100.00
11314;BME280;5712;48.858;9.206;2023-05-15T01:24:33;97743.03;;;10.96;100.00
11314;BME280;5712;48.858;9.206;2023-05-15T01:27:17;97744.59;;;10.98;100.00
11314;BME280;5712;48.858;9.206;2023-05-15T01:29:53;97748.06;;;10.99;100.00
11314;BME280;5712;48.858;9.206;2023-05-15T01:32:23;97746.84;;;10.92;100.00
11314;BME280;5712;48.858;9.206;2023-05-15T01:35:03;97741.81;;;10.89;100.00
11314;BME280;5712;48.858;9.206;2023-05-15T01:37:36;97747.78;;;10.80;100.00
11314;BME280;5712;48.858;9.206;2023-05-15T01:40:09;97744.91;;;10.72;100.00
11314;BME280;5712;48.858;9.206;2023-05-15T01:42:42;97746.22;;;10.66;100.00
11314;BME280;5712;48.858;9.206;2023-05-15T01:45:11;97749.94;;;10.64;100.00
11314;BME280;5712;48.858;9.206;2023-05-15T01:47:40;97744.75;;;10.62;100.00
11314;BME280;5712;48.858;9.206;2023-05-15T01:50:10;97744.88;;;10.61;100.00
11314;BME280;5712;48.858;9.206;2023-05-15T01:52:41;97741.50;;;10.59;100.00
11314;BME280;5712;48.858;9.206;2023-05-15T01:55:09;97744.34;;;10.56;100.00
11314;BME280;5712;48.858;9.206;2023-05-15T01:57:37;97747.34;;;10.51;100.00
11314;BME280;5712;48.858;9.206;2023-05-15T02:00:08;97738.72;;;10.49;100.00
11314;BME280;5712;48.858;9.206;2023-05-15T02:02:36;97742.53;;;10.45;100.00
11314;BME280;5712;48.858;9.206;2023-05-15T02:05:03;97738.78;;;10.37;100.00
11314;BME280;5712;48.858;9.206;2023-05-15T02:07:31;97738.50;;;10.29;100.00
11314;BME280;5712;48.858;9.206;2023-05-15T02:09:58;97741.81;;;10.20;100.00
11314;BME280;5712;48.858;9.206;2023-05-15T02:12:27;97736.97;;;10.14;100.00
11314;BME280;5712;48.858;9.206;2023-05-15T02:14:56;97744.44;;;10.09;100.00
11314;BME280;5712;48.858;9.206;2023-05-15T02:17:23;97734.69;;;10.09;100.00
11314;BME280;5712;48.858;9.206;2023-05-15T02:19:50;97741.53;;;10.12;100.00
11314;BME280;5712;48.858;9.206;2023-05-15T02:22:17;97748.50;;;10.13;100.00
11314;BME280;5712;48.858;9.206;2023-05-15T02:24:43;97745.41;;;10.19;100.00
11314;BME280;5712;48.858;9.206;2023-05-15T02:27:17;97749.28;;;10.26;100.00
11314;BME280;5712;48.858;9.206;2023-05-15T02:29:54;97744.50;;;10.31;100.00
11314;BME280;5712;48.858;9.206;2023-05-15T02:32:32;97745.28;;;10.44;100.00
11314;BME280;5712;48.858;9.206;2023-05-15T02:35:09;97743.13;;;10.49;100.00
11314;BME280;5712;48.858;9.206;2023-05-15T02:37:38;97748.56;;;10.58;100.00
11314;BME280;5712;48.858;9.206;2023-05-15T02:40:09;97750.75;;;10.64;100.00
11314;BME280;5712;48.858;9.206;2023-05-15T02:42:36;97744.66;;;10.75;100.00
11314;BME280;5712;48.858;9.206;2023-05-15T02:45:05;97735.78;;;10.76;100.00
11314;BME280;5712;48.858;9.206;2023-05-15T02:47:35;97739.66;;;10.83;100.00
11314;BME280;5712;48.858;9.206;2023-05-15T02:50:03;97736.53;;;10.89;100.00
11314;BME280;5712;48.858;9.206;2023-05-15T02:52:29;97740.50;;;10.94;100.00
11314;BME280;5712;48.858;9.206;2023-05-15T02:54:56;97739.69;;;10.94;100.00
11314;BME280;5712;48.858;9.206;2023-05-15T02:57:22;97734.38;;;10.94;100.00
11314;BME280;5712;48.858;9.206;2023-05-15T02:59:49;97736.88;;;10.95;100.00
11314;BME280;5712;48.858;9.206;2023-05-15T03:02:15;97740.28;;;10.97;100.00
11314;BME280;5712;48.858;9.206;2023-05-15T03:04:43;97743.53;;;11.01;100.00
11314;BME280;5712;48.858;9.206;2023-05-15T03:07:10;97744.59;;;10.98;100.00
11314;BME280;5712;48.858;9.206;2023-05-15T03:09:38;97738.25;;;11.01;100.00
11314;BME280;5712;48.858;9.206;2023-05-15T03:12:05;97731.72;;;11.05;100.00
11314;BME280;5712;48.858;9.206;2023-05-15T03:14:32;97731.50;;;11.08;100.00
11314;BME280;5712;48.858;9.206;2023-05-15T03:16:59;97731.41;;;11.09;100.00
11314;BME280;5712;48.858;9.206;2023-05-15T03:19:25;97728.63;;;11.11;100.00
11314;BME280;5712;48.858;9.206;2023-05-15T03:21:53;97727.69;;;11.12;100.00
11314;BME280;5712;48.858;9.206;2023-05-15T03:24:19;97728.63;;;11.11;100.00
11314;BME280;5712;48.858;9.206;2023-05-15T03:26:46;97731.03;;;11.03;100.00
11314;BME280;5712;48.858;9.206;2023-05-15T03:29:13;97732.22;;;11.10;100.00
11314;BME280;5712;48.858;9.206;2023-05-15T03:31:39;97742.91;;;11.08;100.00
11314;BME280;5712;48.858;9.206;2023-05-15T03:34:05;97736.19;;;11.04;100.00
11314;BME280;5712;48.858;9.206;2023-05-15T03:36:32;97737.28;;;11.02;100.00
11314;BME280;5712;48.858;9.206;2023-05-15T03:39:00;97738.00;;;11.04;100.00
11314;BME280;5712;48.858;9.206;2023-05-15T03:41:26;97737.50;;;10.99;100.00
11314;BME280;5712;48.858;9.206;2023-05-15T03:43:53;97729.56;;;10.99;100.00
11314;BME280;5712;48.858;9.206;2023-05-15T03:46:19;97737.88;;;11.05;100.00
11314;BME280;5712;48.858;9.206;2023-05-15T03:48:46;97743.78;;;11.09;100.00
11314;BME280;5712;48.858;9.206;2023-05-15T03:51:12;97730.53;;;11.09;100.00
11314;BME280;5712;48.858;9.206;2023-05-15T03:53:38;97731.63;;;11.17;100.00
11314;BME280;5712;48.858;9.206;2023-05-15T03:56:06;97725.00;;;11.23;100.00
11314;BME280;5712;48.858;9.206;2023-05-15T03:58:33;97727.31;;;11.27;100.00
11314;BME280;5712;48.858;9.206;2023-05-15T04:00:59;97727.19;;;11.29;100.00
11314;BME280;5712;48.858;9.206;2023-05-15T04:03:26;97726.22;;;11.30;100.00
11314;BME280;5712;48.858;9.206;2023-05-15T04:05:52;97730.78;;;11.39;100.00
11314;BME280;5712;48.858;9.206;2023-05-15T04:08:19;97732.72;;;11.37;100.00
11314;BME280;5712;48.858;9.206;2023-05-15T04:10:45;97727.66;;;11.45;100.00
11314;BME280;5712;48.858;9.206;2023-05-15T04:13:13;97730.31;;;11.45;100.00
11314;BME280;5712;48.858;9.206;2023-05-15T04:15:40;97728.88;;;11.52;100.00
11314;BME280;5712;48.858;9.206;2023-05-15T04:18:07;97729.47;;;11.55;100.00
11314;BME280;5712;48.858;9.206;2023-05-15T04:20:33;97732.25;;;11.65;100.00
11314;BME280;5712;48.858;9.206;2023-05-15T04:23:01;97719.50;;;11.70;100.00
11314;BME280;5712;48.858;9.206;2023-05-15T04:25:28;97723.59;;;11.74;100.00
11314;BME280;5712;48.858;9.206;2023-05-15T04:27:55;97730.56;;;11.75;100.00
11314;BME280;5712;48.858;9.206;2023-05-15T04:30:23;97721.66;;;11.76;100.00
11314;BME280;5712;48.858;9.206;2023-05-15T04:32:49;97723.53;;;11.85;100.00
11314;BME280;5712;48.858;9.206;2023-05-15T04:35:16;97724.75;;;11.92;100.00
11314;BME280;5712;48.858;9.206;2023-05-15T04:37:43;97731.72;;;11.93;100.00
11314;BME280;5712;48.858;9.206;2023-05-15T04:40:11;97723.75;;;12.04;100.00
11314;BME280;5712;48.858;9.206;2023-05-15T04:42:39;97722.69;;;12.06;100.00
11314;BME280;5712;48.858;9.206;2023-05-15T04:45:06;97728.28;;;12.13;100.00
11314;BME280;5712;48.858;9.206;2023-05-15T04:47:35;97727.56;;;12.22;100.00
11314;BME280;5712;48.858;9.206;2023-05-15T04:50:01;97728.47;;;12.32;100.00
11314;BME280;5712;48.858;9.206;2023-05-15T04:52:28;97717.94;;;12.41;100.00
11314;BME280;5712;48.858;9.206;2023-05-15T04:54:54;97721.13;;;12.56;100.00
11314;BME280;5712;48.858;9.206;2023-05-15T04:57:21;97717.16;;;12.61;100.00
11314;BME280;5712;48.858;9.206;2023-05-15T04:59:47;97716.75;;;12.66;100.00
11314;BME280;5712;48.858;9.206;2023-05-15T05:02:14;97720.28;;;12.76;100.00
11314;BME280;5712;48.858;9.206;2023-05-15T05:04:42;97729.16;;;12.86;100.00
11314;BME280;5712;48.858;9.206;2023-05-15T05:07:09;97730.81;;;12.98;100.00
11314;BME280;5712;48.858;9.206;2023-05-15T05:09:37;97724.28;;;13.02;100.00
11314;BME280;5712;48.858;9.206;2023-05-15T05:12:04;97720.94;;;13.09;100.00
11314;BME280;5712;48.858;9.206;2023-05-15T05:14:31;97720.19;;;13.18;100.00
11314;BME280;5712;48.858;9.206;2023-05-15T05:16:57;97728.88;;;13.30;100.00
11314;BME280;5712;48.858;9.206;2023-05-15T05:19:24;97719.69;;;13.34;100.00
11314;BME280;5712;48.858;9.206;2023-05-15T05:21:53;97728.84;;;13.50;100.00
11314;BME280;5712;48.858;9.206;2023-05-15T05:24:20;97730.03;;;13.76;100.00
11314;BME280;5712;48.858;9.206;2023-05-15T05:26:47;97728.31;;;14.15;100.00
11314;BME280;5712;48.858;9.206;2023-05-15T05:29:13;97717.47;;;14.46;95.47
11314;BME280;5712;48.858;9.206;2023-05-15T05:31:40;97714.94;;;14.64;92.46
11314;BME280;5712;48.858;9.206;2023-05-15T05:34:06;97720.25;;;14.83;90.47
11314;BME280;5712;48.858;9.206;2023-05-15T05:36:33;97720.88;;;15.23;89.43
11314;BME280;5712;48.858;9.206;2023-05-15T05:39:02;97712.38;;;15.56;86.32
11314;BME280;5712;48.858;9.206;2023-05-15T05:41:29;97698.69;;;15.95;84.28
11314;BME280;5712;48.858;9.206;2023-05-15T05:43:56;97702.09;;;16.14;82.12
11314;BME280;5712;48.858;9.206;2023-05-15T05:46:22;97686.47;;;16.37;79.35
11314;BME280;5712;48.858;9.206;2023-05-15T05:48:50;97685.44;;;16.65;79.22
11314;BME280;5712;48.858;9.206;2023-05-15T05:51:16;97685.41;;;16.82;77.30
11314;BME280;5712;48.858;9.206;2023-05-15T05:53:43;97680.00;;;16.74;76.09
11314;BME280;5712;48.858;9.206;2023-05-15T05:56:11;97677.19;;;17.01;75.59
11314;BME280;5712;48.858;9.206;2023-05-15T05:58:37;97676.69;;;17.23;73.65
11314;BME280;5712;48.858;9.206;2023-05-15T06:01:04;97679.00;;;17.44;73.27
11314;BME280;5712;48.858;9.206;2023-05-15T06:03:31;97684.69;;;17.82;72.28
11314;BME280;5712;48.858;9.206;2023-05-15T06:05:58;97678.22;;;18.01;70.28
11314;BME280;5712;48.858;9.206;2023-05-15T06:08:25;97676.41;;;18.09;69.39
11314;BME280;5712;48.858;9.206;2023-05-15T06:10:51;97676.09;;;18.28;69.06
11314;BME280;5712;48.858;9.206;2023-05-15T06:13:19;97673.59;;;18.27;67.57
11314;BME280;5712;48.858;9.206;2023-05-15T06:15:46;97678.50;;;18.31;67.05
11314;BME280;5712;48.858;9.206;2023-05-15T06:18:13;97672.34;;;17.97;66.33
11314;BME280;5712;48.858;9.206;2023-05-15T06:20:39;97683.25;;;17.62;68.90
11314;BME280;5712;48.858;9.206;2023-05-15T06:23:06;97683.31;;;17.78;68.80
11314;BME280;5712;48.858;9.206;2023-05-15T06:25:33;97686.22;;;17.93;68.77
11314;BME280;5712;48.858;9.206;2023-05-15T06:28:00;97685.44;;;18.08;68.97
11314;BME280;5712;48.858;9.206;2023-05-15T06:30:28;97684.34;;;18.51;67.91
11314;BME280;5712;48.858;9.206;2023-05-15T06:32:54;97668.22;;;18.11;65.54
11314;BME280;5712;48.858;9.206;2023-05-15T06:35:21;97671.03;;;18.01;66.03
11314;BME280;5712;48.858;9.206;2023-05-15T06:37:48;97672.00;;;17.92;66.38
11314;BME280;5712;48.858;9.206;2023-05-15T06:40:16;97688.47;;;17.72;68.08
11314;BME280;5712;48.858;9.206;2023-05-15T06:42:42;97689.63;;;17.69;67.90
11314;BME280;5712;48.858;9.206;2023-05-15T06:45:09;97693.00;;;17.38;69.00
11314;BME280;5712;48.858;9.206;2023-05-15T06:47:37;97689.53;;;17.02;69.05
11314;BME280;5712;48.858;9.206;2023-05-15T06:50:04;97708.63;;;16.47;72.61
11314;BME280;5712;48.858;9.206;2023-05-15T06:52:31;97716.69;;;16.10;74.21
11314;BME280;5712;48.858;9.206;2023-05-15T06:54:58;97725.00;;;15.81;76.16
11314;BME280;5712;48.858;9.206;2023-05-15T06:57:24;97733.59;;;15.75;77.40
11314;BME280;5712;48.858;9.206;2023-05-15T06:59:51;97729.78;;;15.77;79.38
11314;BME280;5712;48.858;9.206;2023-05-15T07:02:17;97721.06;;;15.85;78.33
11314;BME280;5712;48.858;9.206;2023-05-15T07:04:45;97728.66;;;15.80;79.17
11314;BME280;5712;48.858;9.206;2023-05-15T07:07:12;97735.91;;;15.87;79.65
11314;BME280;5712;48.858;9.206;2023-05-15T07:09:38;97728.78;;;15.88;79.86
11314;BME280;5712;48.858;9.206;2023-05-15T07:12:05;97726.72;;;15.82;78.66
11314;BME280;5712;48.858;9.206;2023-05-15T07:14:32;97732.03;;;15.82;79.09
11314;BME280;5712;48.858;9.206;2023-05-15T07:16:59;97734.53;;;15.83;80.85
11314;BME280;5712;48.858;9.206;2023-05-15T07:19:25;97737.25;;;16.01;80.01
11314;BME280;5712;48.858;9.206;2023-05-15T07:21:53;97724.38;;;15.96;77.80
11314;BME280;5712;48.858;9.206;2023-05-15T07:24:20;97720.88;;;15.96;78.40
11314;BME280;5712;48.858;9.206;2023-05-15T07:26:46;97724.94;;;16.00;78.03
11314;BME280;5712;48.858;9.206;2023-05-15T07:29:13;97733.81;;;16.08;80.10
11314;BME280;5712;48.858;9.206;2023-05-15T07:31:39;97724.81;;;16.18;77.56
11314;BME280;5712;48.858;9.206;2023-05-15T07:34:09;97725.16;;;16.06;77.47
11314;BME280;5712;48.858;9.206;2023-05-15T07:36:36;97727.94;;;16.04;77.74
11314;BME280;5712;48.858;9.206;2023-05-15T07:39:04;97721.00;;;15.94;78.06
11314;BME280;5712;48.858;9.206;2023-05-15T07:41:30;97715.03;;;16.09;76.39
11314;BME280;5712;48.858;9.206;2023-05-15T07:43:57;97720.75;;;16.14;76.44
11314;BME280;5712;48.858;9.206;2023-05-15T07:46:24;97721.59;;;16.15;76.33
11314;BME280;5712;48.858;9.206;2023-05-15T07:48:51;97727.28;;;16.20;77.44
11314;BME280;5712;48.858;9.206;2023-05-15T07:51:17;97741.66;;;16.36;78.49
11314;BME280;5712;48.858;9.206;2023-05-15T07:53:44;97722.72;;;16.39;75.52
11314;BME280;5712;48.858;9.206;2023-05-15T07:56:11;97719.81;;;16.50;75.17
11314;BME280;5712;48.858;9.206;2023-05-15T07:58:38;97715.00;;;16.54;75.26
11314;BME280;5712;48.858;9.206;2023-05-15T08:01:05;97718.50;;;16.72;75.99
11314;BME280;5712;48.858;9.206;2023-05-15T08:03:31;97704.56;;;16.78;72.68
11314;BME280;5712;48.858;9.206;2023-05-15T08:05:58;97702.69;;;16.96;71.93
11314;BME280;5712;48.858;9.206;2023-05-15T08:08:25;97694.44;;;16.89;70.47
11314;BME280;5712;48.858;9.206;2023-05-15T08:10:51;97700.03;;;16.96;70.70
11314;BME280;5712;48.858;9.206;2023-05-15T08:13:19;97691.75;;;17.07;69.63
11314;BME280;5712;48.858;9.206;2023-05-15T08:15:45;97691.91;;;17.05;71.36
11314;BME280;5712;48.858;9.206;2023-05-15T08:18:12;97685.63;;;17.14;70.29
11314;BME280;5712;48.858;9.206;2023-05-15T08:20:38;97667.66;;;17.24;68.66
11314;BME280;5712;48.858;9.206;2023-05-15T08:23:05;97682.00;;;17.23;69.86
11314;BME280;5712;48.858;9.206;2023-05-15T08:25:31;97675.69;;;17.24;69.51
11314;BME280;5712;48.858;9.206;2023-05-15T08:27:58;97684.84;;;17.47;69.10
11314;BME280;5712;48.858;9.206;2023-05-15T08:30:26;97686.91;;;17.61;68.88
11314;BME280;5712;48.858;9.206;2023-05-15T08:32:52;97667.91;;;17.64;67.50
11314;BME280;5712;48.858;9.206;2023-05-15T08:35:19;97679.13;;;17.76;68.32
11314;BME280;5712;48.858;9.206;2023-05-15T08:37:45;97673.00;;;17.83;67.37
11314;BME280;5712;48.858;9.206;2023-05-15T08:40:12;97674.16;;;17.81;67.92
11314;BME280;5712;48.858;9.206;2023-05-15T08:42:44;97680.13;;;17.75;67.96
11314;BME280;5712;48.858;9.206;2023-05-15T08:45:13;97678.63;;;17.80;68.04
11314;BME280;5712;48.858;9.206;2023-05-15T08:47:42;97674.31;;;17.79;67.65
11314;BME280;5712;48.858;9.206;2023-05-15T08:50:10;97667.66;;;17.91;67.34
11314;BME280;5712;48.858;9.206;2023-05-15T08:52:40;97657.34;;;18.04;64.45
11314;BME280;5712;48.858;9.206;2023-05-15T08:55:08;97649.59;;;17.93;64.40
11314;BME280;5712;48.858;9.206;2023-05-15T08:57:36;97640.63;;;17.94;63.14
11314;BME280;5712;48.858;9.206;2023-05-15T09:00:03;97625.22;;;17.96;62.02
11314;BME280;5712;48.858;9.206;2023-05-15T09:02:33;97648.69;;;18.18;63.48
11314;BME280;5712;48.858;9.206;2023-05-15T09:05:01;97627.97;;;18.36;61.61
11314;BME280;5712;48.858;9.206;2023-05-15T09:07:28;97630.84;;;18.43;61.12
11314;BME280;5712;48.858;9.206;2023-05-15T09:09:55;97640.72;;;18.50;62.86
11314;BME280;5712;48.858;9.206;2023-05-15T09:12:24;97650.06;;;18.38;64.01
11314;BME280;5712;48.858;9.206;2023-05-15T09:14:51;97638.72;;;18.44;62.97
11314;BME280;5712;48.858;9.206;2023-05-15T09:17:17;97628.47;;;18.32;61.76
11314;BME280;5712;48.858;9.206;2023-05-15T09:19:44;97618.53;;;17.92;61.29
11314;BME280;5712;48.858;9.206;2023-05-15T09:22:15;97621.25;;;18.08;62.11
11314;BME280;5712;48.858;9.206;2023-05-15T09:24:45;97617.78;;;18.32;62.24
11314;BME280;5712;48.858;9.206;2023-05-15T09:27:12;97628.00;;;18.44;62.20
11314;BME280;5712;48.858;9.206;2023-05-15T09:29:39;97604.75;;;18.45;60.03
11314;BME280;5712;48.858;9.206;2023-05-15T09:32:07;97601.72;;;18.56;59.41
11314;BME280;5712;48.858;9.206;2023-05-15T09:34:36;97599.56;;;18.43;59.01
11314;BME280;5712;48.858;9.206;2023-05-15T09:37:05;97606.25;;;18.47;60.31
11314;BME280;5712;48.858;9.206;2023-05-15T09:39:34;97617.63;;;18.65;61.09
11314;BME280;5712;48.858;9.206;2023-05-15T09:42:05;97610.59;;;18.72;59.53
11314;BME280;5712;48.858;9.206;2023-05-15T09:44:33;97588.00;;;18.75;58.61
11314;BME280;5712;48.858;9.206;2023-05-15T09:47:00;97601.56;;;18.81;58.87
11314;BME280;5712;48.858;9.206;2023-05-15T09:49:27;97592.16;;;18.93;58.38
11314;BME280;5712;48.858;9.206;2023-05-15T09:51:53;97582.75;;;18.97;58.34
11314;BME280;5712;48.858;9.206;2023-05-15T09:54:23;97608.03;;;19.03;59.56
11314;BME280;5712;48.858;9.206;2023-05-15T09:56:52;97590.47;;;19.00;58.41
11314;BME280;5712;48.858;9.206;2023-05-15T09:59:19;97579.28;;;18.89;57.67
11314;BME280;5712;48.858;9.206;2023-05-15T10:01:47;97599.66;;;18.98;59.13
11314;BME280;5712;48.858;9.206;2023-05-15T10:04:15;97598.19;;;18.87;59.34
11314;BME280;5712;48.858;9.206;2023-05-15T10:06:44;97610.56;;;18.88;60.33
11314;BME280;5712;48.858;9.206;2023-05-15T10:09:12;97608.56;;;18.90;60.61
11314;BME280;5712;48.858;9.206;2023-05-15T10:11:40;97583.28;;;19.01;59.04
11314;BME280;5712;48.858;9.206;2023-05-15T10:14:11;97571.19;;;19.05;57.90
11314;BME280;5712;48.858;9.206;2023-05-15T10:16:38;97553.28;;;19.05;56.29
11314;BME280;5712;48.858;9.206;2023-05-15T10:19:07;97524.47;;;19.07;53.75
11314;BME280;5712;48.858;9.206;2023-05-15T10:21:35;97534.16;;;19.16;54.24
11314;BME280;5712;48.858;9.206;2023-05-15T10:24:02;97541.19;;;19.17;55.01
11314;BME280;5712;48.858;9.206;2023-05-15T10:26:34;97549.22;;;19.25;55.23
11314;BME280;5712;48.858;9.206;2023-05-15T10:29:05;97529.22;;;19.44;54.05
11314;BME280;5712;48.858;9.206;2023-05-15T10:31:33;97528.63;;;19.56;54.49
11314;BME280;5712;48.858;9.206;2023-05-15T10:34:01;97503.47;;;19.65;52.44
11314;BME280;5712;48.858;9.206;2023-05-15T10:36:28;97495.41;;;19.65;51.70
11314;BME280;5712;48.858;9.206;2023-05-15T10:38:55;97461.50;;;19.72;49.94
11314;BME280;5712;48.858;9.206;2023-05-15T10:41:23;97449.13;;;19.71;49.54
11314;BME280;5712;48.858;9.206;2023-05-15T10:43:52;97442.03;;;19.78;48.19
11314;BME280;5712;48.858;9.206;2023-05-15T10:46:20;97466.63;;;19.82;49.92
11314;BME280;5712;48.858;9.206;2023-05-15T10:48:49;97470.09;;;19.90;49.97
11314;BME280;5712;48.858;9.206;2023-05-15T10:51:16;97478.56;;;19.79;51.20
11314;BME280;5712;48.858;9.206;2023-05-15T10:53:44;97486.66;;;20.16;51.87
11314;BME280;5712;48.858;9.206;2023-05-15T10:56:12;97504.50;;;20.09;53.44
11314;BME280;5712;48.858;9.206;2023-05-15T10:58:43;97489.88;;;19.89;52.42
11314;BME280;5712;48.858;9.206;2023-05-15T11:01:23;97477.94;;;19.47;51.33
11314;BME280;5712;48.858;9.206;2023-05-15T11:04:03;97467.84;;;19.18;51.77
11314;BME280;5712;48.858;9.206;2023-05-15T11:06:30;97477.44;;;19.05;51.96
11314;BME280;5712;48.858;9.206;2023-05-15T11:09:33;97482.72;;;18.82;52.83
11314;BME280;5712;48.858;9.206;2023-05-15T11:12:01;97482.00;;;18.96;53.12
11314;BME280;5712;48.858;9.206;2023-05-15T11:14:29;97472.56;;;19.16;52.55
11314;BME280;5712;48.858;9.206;2023-05-15T11:16:57;97473.22;;;19.49;51.91
11314;BME280;5712;48.858;9.206;2023-05-15T11:19:32;97476.47;;;19.89;52.08
11314;BME280;5712;48.858;9.206;2023-05-15T11:22:00;97463.38;;;20.31;50.94
11314;BME280;5712;48.858;9.206;2023-05-15T11:24:27;97416.38;;;20.35;47.53
11314;BME280;5712;48.858;9.206;2023-05-15T11:26:58;97426.03;;;20.44;48.00
11314;BME280;5712;48.858;9.206;2023-05-15T11:29:25;97434.16;;;20.65;48.65
11314;BME280;5712;48.858;9.206;2023-05-15T11:31:52;97432.88;;;20.90;48.01
11314;BME280;5712;48.858;9.206;2023-05-15T11:34:29;97421.09;;;20.77;47.04
11314;BME280;5712;48.858;9.206;2023-05-15T11:36:57;97419.16;;;20.42;47.58
11314;BME280;5712;48.858;9.206;2023-05-15T11:39:24;97415.63;;;20.41;48.06
11314;BME280;5712;48.858;9.206;2023-05-15T11:41:52;97431.16;;;20.31;48.60
11314;BME280;5712;48.858;9.206;2023-05-15T11:44:20;97422.66;;;20.13;48.44
11314;BME280;5712;48.858;9.206;2023-05-15T11:46:47;97419.78;;;20.29;48.39
11314;BME280;5712;48.858;9.206;2023-05-15T11:49:14;97420.09;;;20.63;48.55
11314;BME280;5712;48.858;9.206;2023-05-15T11:51:42;97416.00;;;20.96;46.52
11314;BME280;5712;48.858;9.206;2023-05-15T11:54:09;97402.56;;;20.82;46.30
11314;BME280;5712;48.858;9.206;2023-05-15T11:56:41;97410.38;;;20.48;47.00
11314;BME280;5712;48.858;9.206;2023-05-15T11:59:09;97414.50;;;20.21;47.50
11314;BME280;5712;48.858;9.206;2023-05-15T12:01:38;97396.56;;;20.07;46.98
11314;BME280;5712;48.858;9.206;2023-05-15T12:04:11;97396.72;;;20.06;46.62
11314;BME280;5712;48.858;9.206;2023-05-15T12:06:38;97407.91;;;20.09;47.68
11314;BME280;5712;48.858;9.206;2023-05-15T12:09:12;97419.97;;;20.13;48.04
11314;BME280;5712;48.858;9.206;2023-05-15T12:11:40;97409.63;;;20.02;47.49
11314;BME280;5712;48.858;9.206;2023-05-15T12:14:10;97440.13;;;20.09;49.60
11314;BME280;5712;48.858;9.206;2023-05-15T12:16:36;97463.53;;;20.15;50.66
11314;BME280;5712;48.858;9.206;2023-05-15T12:19:03;97420.97;;;20.12;48.34
11314;BME280;5712;48.858;9.206;2023-05-15T12:21:29;97427.34;;;20.11;48.72
11314;BME280;5712;48.858;9.206;2023-05-15T12:23:56;97443.34;;;20.19;49.69
11314;BME280;5712;48.858;9.206;2023-05-15T12:26:24;97418.22;;;20.20;48.15
11314;BME280;5712;48.858;9.206;2023-05-15T12:28:52;97421.09;;;19.96;48.35
11314;BME280;5712;48.858;9.206;2023-05-15T12:31:19;97429.72;;;19.84;49.03
11314;BME280;5712;48.858;9.206;2023-05-15T12:33:46;97425.97;;;19.70;48.75
11314;BME280;5712;48.858;9.206;2023-05-15T12:36:13;97432.78;;;19.58;49.21
11314;BME280;5712;48.858;9.206;2023-05-15T12:38:39;97436.63;;;19.33;49.86
11314;BME280;5712;48.858;9.206;2023-05-15T12:41:09;97458.53;;;19.06;51.95
11314;BME280;5712;48.858;9.206;2023-05-15T12:43:38;97462.97;;;18.83;52.59
11314;BME280;5712;48.858;9.206;2023-05-15T12:46:05;97474.53;;;18.76;52.86
11314;BME280;5712;48.858;9.206;2023-05-15T12:48:31;97471.38;;;18.72;52.60
11314;BME280;5712;48.858;9.206;2023-05-15T12:51:03;97475.22;;;18.78;52.57
11314;BME280;5712;48.858;9.206;2023-05-15T12:53:30;97484.94;;;18.71;53.89
11314;BME280;5712;48.858;9.206;2023-05-15T12:55:58;97499.03;;;18.49;54.99
11314;BME280;5712;48.858;9.206;2023-05-15T12:58:25;97501.56;;;18.26;55.53
11314;BME280;5712;48.858;9.206;2023-05-15T13:00:54;97525.13;;;18.15;57.61
11314;BME280;5712;48.858;9.206;2023-05-15T13:03:21;97534.00;;;18.15;59.04
11314;BME280;5712;48.858;9.206;2023-05-15T13:05:47;97518.28;;;18.20;58.14
11314;BME280;5712;48.858;9.206;2023-05-15T13:08:15;97527.66;;;18.32;58.24
11314;BME280;5712;48.858;9.206;2023-05-15T13:10:44;97504.41;;;18.41;56.95